CSN0117 OKKK-OBBI
Flight info
| Callsign | CSN0117 |
|---|---|
| Flight time | N/A |
| Altitude | 27000 |
| Route | BOXIK5F/33L BOXIK B416 IMDOX P975 LONOS L703 KOBOK |
| Aircraft | A320/M-SDE2E3FGHIJ1RWXY/LB1 |
Departure
| Time | N/A |
|---|---|
| Airport | Kuwait International Airport (OKKK) |
Arrival
| Time | 2026-05-08 10:58 |
|---|---|
| Airport | Bahrain International Airport (OBBI) |
| Time | Latitude | Longitude | Altitude | Speed | Heading |
|---|---|---|---|---|---|
| 2026-05-08 10:32 | 27.80334 | 49.90948 | 27003 ft | 490 kts | 146° |
| 2026-05-08 10:33 | 27.77525 | 49.93134 | 27004 ft | 490 kts | 146° |
| 2026-05-08 10:33 | 27.74722 | 49.95312 | 26659 ft | 486 kts | 146° |
| 2026-05-08 10:33 | 27.71959 | 49.97453 | 25516 ft | 479 kts | 146° |
| 2026-05-08 10:33 | 27.69266 | 49.99536 | 24145 ft | 473 kts | 146° |
| 2026-05-08 10:34 | 27.66566 | 50.01622 | 22986 ft | 469 kts | 146° |
| 2026-05-08 10:34 | 27.63875 | 50.03694 | 22426 ft | 467 kts | 146° |
| 2026-05-08 10:34 | 27.61198 | 50.05754 | 22176 ft | 466 kts | 146° |
| 2026-05-08 10:34 | 27.58528 | 50.07815 | 21980 ft | 465 kts | 146° |
| 2026-05-08 10:35 | 27.55858 | 50.09876 | 22006 ft | 465 kts | 146° |
| 2026-05-08 10:35 | 27.53188 | 50.11931 | 22009 ft | 465 kts | 146° |
| 2026-05-08 10:35 | 27.50552 | 50.13954 | 21957 ft | 446 kts | 146° |
| 2026-05-08 10:35 | 27.48093 | 50.15843 | 21835 ft | 422 kts | 146° |
| 2026-05-08 10:36 | 27.45733 | 50.17660 | 21716 ft | 401 kts | 146° |
| 2026-05-08 10:36 | 27.43478 | 50.19404 | 21456 ft | 387 kts | 145° |
| 2026-05-08 10:36 | 27.41302 | 50.21138 | 20940 ft | 381 kts | 144° |
| 2026-05-08 10:36 | 27.39165 | 50.22878 | 20349 ft | 378 kts | 144° |
| 2026-05-08 10:37 | 27.37053 | 50.24616 | 19757 ft | 374 kts | 144° |
| 2026-05-08 10:37 | 27.34962 | 50.26336 | 19176 ft | 371 kts | 144° |
| 2026-05-08 10:37 | 27.32883 | 50.28036 | 18593 ft | 368 kts | 144° |
| 2026-05-08 10:37 | 27.30819 | 50.29711 | 18013 ft | 365 kts | 144° |
| 2026-05-08 10:38 | 27.28795 | 50.31346 | 17459 ft | 362 kts | 144° |
| 2026-05-08 10:38 | 27.26759 | 50.32991 | 16897 ft | 359 kts | 144° |
| 2026-05-08 10:38 | 27.24741 | 50.34622 | 16344 ft | 356 kts | 144° |
| 2026-05-08 10:38 | 27.22742 | 50.36236 | 15799 ft | 353 kts | 144° |
| 2026-05-08 10:39 | 27.20756 | 50.37839 | 15259 ft | 350 kts | 144° |
| 2026-05-08 10:39 | 27.18788 | 50.39429 | 14722 ft | 347 kts | 144° |
| 2026-05-08 10:39 | 27.16836 | 50.41005 | 14185 ft | 344 kts | 144° |
| 2026-05-08 10:39 | 27.14897 | 50.42566 | 13648 ft | 342 kts | 144° |
| 2026-05-08 10:40 | 27.12974 | 50.44115 | 13103 ft | 339 kts | 144° |
| 2026-05-08 10:40 | 27.10945 | 50.45417 | 12552 ft | 335 kts | 156° |
| 2026-05-08 10:40 | 27.08854 | 50.46496 | 12204 ft | 335 kts | 155° |
| 2026-05-08 10:40 | 27.06739 | 50.47593 | 12136 ft | 335 kts | 155° |
| 2026-05-08 10:41 | 27.04623 | 50.48692 | 12150 ft | 335 kts | 155° |
| 2026-05-08 10:41 | 27.02502 | 50.49789 | 12150 ft | 335 kts | 155° |
| 2026-05-08 10:41 | 27.00390 | 50.50881 | 12006 ft | 333 kts | 155° |
| 2026-05-08 10:41 | 26.98286 | 50.51966 | 11720 ft | 333 kts | 155° |
| 2026-05-08 10:42 | 26.96187 | 50.53052 | 11555 ft | 332 kts | 155° |
| 2026-05-08 10:42 | 26.94088 | 50.54136 | 11380 ft | 331 kts | 155° |
| 2026-05-08 10:42 | 26.91998 | 50.55214 | 11200 ft | 331 kts | 155° |
| 2026-05-08 10:42 | 26.89940 | 50.56274 | 11032 ft | 330 kts | 155° |
| 2026-05-08 10:43 | 26.87859 | 50.57346 | 10857 ft | 329 kts | 155° |
| 2026-05-08 10:43 | 26.85782 | 50.58417 | 10676 ft | 328 kts | 155° |
| 2026-05-08 10:43 | 26.83712 | 50.59484 | 10507 ft | 327 kts | 155° |
| 2026-05-08 10:43 | 26.81648 | 50.60547 | 10332 ft | 326 kts | 155° |
| 2026-05-08 10:44 | 26.79595 | 50.61604 | 10081 ft | 321 kts | 155° |
| 2026-05-08 10:44 | 26.77620 | 50.62620 | 9940 ft | 304 kts | 155° |
| 2026-05-08 10:44 | 26.75742 | 50.63584 | 9780 ft | 291 kts | 155° |
| 2026-05-08 10:44 | 26.74534 | 50.64204 | 9553 ft | 287 kts | 155° |
| 2026-05-08 10:45 | 26.72120 | 50.65442 | 8979 ft | 284 kts | 155° |
| 2026-05-08 10:45 | 26.70352 | 50.66352 | 8537 ft | 282 kts | 155° |
| 2026-05-08 10:45 | 26.68574 | 50.67267 | 8083 ft | 280 kts | 155° |
| 2026-05-08 10:45 | 26.66807 | 50.68176 | 7621 ft | 279 kts | 155° |
| 2026-05-08 10:46 | 26.65051 | 50.69079 | 7152 ft | 277 kts | 155° |
| 2026-05-08 10:46 | 26.63308 | 50.69974 | 6686 ft | 275 kts | 155° |
| 2026-05-08 10:46 | 26.61603 | 50.70848 | 6475 ft | 263 kts | 155° |
| 2026-05-08 10:46 | 26.59989 | 50.71678 | 6354 ft | 248 kts | 155° |
| 2026-05-08 10:47 | 26.58462 | 50.72460 | 6236 ft | 235 kts | 156° |
| 2026-05-08 10:47 | 26.56993 | 50.73209 | 5983 ft | 230 kts | 156° |
| 2026-05-08 10:47 | 26.56034 | 50.73698 | 5765 ft | 229 kts | 156° |
| 2026-05-08 10:47 | 26.54122 | 50.74674 | 5319 ft | 227 kts | 156° |
| 2026-05-08 10:48 | 26.52692 | 50.75405 | 4987 ft | 226 kts | 156° |
| 2026-05-08 10:48 | 26.51261 | 50.76136 | 4655 ft | 225 kts | 156° |
| 2026-05-08 10:48 | 26.49841 | 50.76862 | 4324 ft | 224 kts | 156° |
| 2026-05-08 10:48 | 26.48428 | 50.77586 | 3995 ft | 223 kts | 156° |
| 2026-05-08 10:49 | 26.47497 | 50.78065 | 3779 ft | 222 kts | 155° |
| 2026-05-08 10:49 | 26.45624 | 50.79025 | 3340 ft | 221 kts | 156° |
| 2026-05-08 10:49 | 26.44701 | 50.79498 | 3115 ft | 221 kts | 156° |
| 2026-05-08 10:49 | 26.43307 | 50.80210 | 2786 ft | 220 kts | 156° |
| 2026-05-08 10:50 | 26.41473 | 50.81145 | 2357 ft | 218 kts | 156° |
| 2026-05-08 10:50 | 26.40540 | 50.81621 | 2137 ft | 218 kts | 156° |
| 2026-05-08 10:50 | 26.38721 | 50.82551 | 1725 ft | 216 kts | 156° |
| 2026-05-08 10:50 | 26.37821 | 50.83010 | 1653 ft | 216 kts | 156° |
| 2026-05-08 10:51 | 26.35994 | 50.83942 | 1649 ft | 216 kts | 156° |
| 2026-05-08 10:51 | 26.34626 | 50.84642 | 1650 ft | 216 kts | 156° |
| 2026-05-08 10:51 | 26.33722 | 50.85103 | 1650 ft | 216 kts | 156° |
| 2026-05-08 10:51 | 26.32347 | 50.85783 | 1648 ft | 216 kts | 161° |
| 2026-05-08 10:52 | 26.30453 | 50.85692 | 1652 ft | 202 kts | 206° |
| 2026-05-08 10:52 | 26.29638 | 50.85213 | 1654 ft | 191 kts | 211° |
| 2026-05-08 10:52 | 26.28201 | 50.84228 | 1659 ft | 182 kts | 213° |
| 2026-05-08 10:52 | 26.27478 | 50.83716 | 1651 ft | 182 kts | 213° |
| 2026-05-08 10:53 | 26.26425 | 50.82969 | 1651 ft | 182 kts | 213° |
| 2026-05-08 10:53 | 26.25407 | 50.82247 | 1654 ft | 167 kts | 213° |
| 2026-05-08 10:53 | 26.24428 | 50.81553 | 1652 ft | 167 kts | 213° |
| 2026-05-08 10:53 | 26.23449 | 50.80860 | 1651 ft | 167 kts | 213° |
| 2026-05-08 10:54 | 26.22470 | 50.80166 | 1651 ft | 167 kts | 213° |
| 2026-05-08 10:54 | 26.21491 | 50.79473 | 1651 ft | 167 kts | 213° |
| 2026-05-08 10:54 | 26.20655 | 50.78607 | 1627 ft | 165 kts | 245° |
| 2026-05-08 10:54 | 26.20420 | 50.77363 | 1673 ft | 166 kts | 267° |
| 2026-05-08 10:55 | 26.20400 | 50.75663 | 1653 ft | 166 kts | 271° |
| 2026-05-08 10:55 | 26.20667 | 50.74466 | 1672 ft | 150 kts | 302° |
| 2026-05-08 10:55 | 26.21022 | 50.73854 | 1687 ft | 135 kts | 303° |
| 2026-05-08 10:55 | 26.21508 | 50.73015 | 1635 ft | 128 kts | 302° |
| 2026-05-08 10:56 | 26.21988 | 50.72184 | 1526 ft | 127 kts | 302° |
| 2026-05-08 10:56 | 26.22465 | 50.71358 | 1381 ft | 124 kts | 302° |
| 2026-05-08 10:56 | 26.22924 | 50.70564 | 1256 ft | 122 kts | 302° |
| 2026-05-08 10:56 | 26.23382 | 50.69772 | 1090 ft | 121 kts | 302° |
| 2026-05-08 10:57 | 26.23839 | 50.68982 | 931 ft | 121 kts | 302° |
| 2026-05-08 10:57 | 26.24294 | 50.68194 | 769 ft | 121 kts | 302° |
| 2026-05-08 10:57 | 26.25197 | 50.66632 | 453 ft | 120 kts | 302° |
| 2026-05-08 10:58 | 26.25649 | 50.65846 | 297 ft | 120 kts | 302° |
| 2026-05-08 10:58 | 26.26103 | 50.65065 | 126 ft | 120 kts | 303° |
| 2026-05-08 10:58 | 26.26540 | 50.64303 | 15 ft | 99 kts | 297° |
| 2026-05-08 10:58 | 26.26752 | 50.63931 | 17 ft | 32 kts | 305° |
| 2026-05-08 10:59 | 26.26749 | 50.63857 | 17 ft | 8 kts | 201° |
| 2026-05-08 10:59 | 26.26705 | 50.63829 | 17 ft | 4 kts | 218° |
| 2026-05-08 10:59 | 26.26699 | 50.63822 | 18 ft | 1 kts | 229° |
| 2026-05-08 10:59 | 26.26697 | 50.63819 | 19 ft | 0 kts | 230° |
| 2026-05-08 11:00 | 26.26694 | 50.63809 | 18 ft | 10 kts | 249° |
| 2026-05-08 11:01 | 26.26639 | 50.63761 | 17 ft | 10 kts | 172° |
| 2026-05-08 11:01 | 26.26579 | 50.63754 | 17 ft | 9 kts | 210° |
| 2026-05-08 11:01 | 26.26564 | 50.63706 | 17 ft | 7 kts | 295° |
| 2026-05-08 11:01 | 26.26584 | 50.63657 | 19 ft | 7 kts | 275° |
| 2026-05-08 11:02 | 26.26557 | 50.63626 | 17 ft | 6 kts | 214° |
| 2026-05-08 11:02 | 26.26526 | 50.63603 | 18 ft | 0 kts | 214° |